Time;durP1;ratioP1;P1;durP2;ratioP2;P2;SDS_P1;SDS_P2;PMS_P1;PMS_P2;Temp;Humidity;BMP_temperature;BMP_pressure;BME280_temperature;BME280_humidity;BME280_pressure;Samples;Min_cycle;Max_cycle;Signal;HPM_P1;HPM_P2
2022/10/14 00:06:53;;;;;;;2.33;1.60;;;;;;;;;;20945559;28;20217;-67
2022/10/14 00:16:56;;;;;;;2.23;1.30;;;;;;;;;;20978291;28;20577;-67
2022/10/14 00:26:57;;;;;;;2.77;1.40;;;;;;;;;;20945562;28;20239;-68
2022/10/14 00:36:59;;;;;;;2.60;1.60;;;;;;;;;;20942901;28;20217;-67
2022/10/14 00:47:01;;;;;;;2.10;1.40;;;;;;;;;;20966866;28;20205;-68
2022/10/14 00:57:03;;;;;;;2.70;1.57;;;;;;;;;;20948246;28;20362;-68
2022/10/14 01:07:05;;;;;;;2.47;1.57;;;;;;;;;;20899414;23;20237;-82
2022/10/14 01:17:16;;;;;;;2.73;1.60;;;;;;;;;;20799494;28;20226;-83
2022/10/14 01:27:26;;;;;;;3.10;1.80;;;;;;;;;;20830621;28;20214;-83
2022/10/14 01:37:31;;;;;;;2.70;1.70;;;13.90;99.90;;;;;;20828532;28;20230;-83
2022/10/14 01:47:35;;;;;;;2.83;1.53;;;13.90;99.90;;;;;;20971552;28;20251;-81
2022/10/14 01:57:38;;;;;;;1.87;1.40;;;;;;;;;;20974590;28;20586;-82
2022/10/14 02:07:44;;;;;;;3.40;1.60;;;;;;;;;;20959106;28;20225;-81
2022/10/14 02:18:17;;;;;;;3.03;1.73;;;13.80;99.90;;;;;;20956667;28;20358;-82
2022/10/14 02:28:22;;;;;;;2.33;1.50;;;13.60;99.90;;;;;;20971199;28;20213;-82
2022/10/14 02:38:25;;;;;;;4.73;1.67;;;;;;;;;;20972099;28;20279;-83
2022/10/14 02:48:27;;;;;;;2.10;1.27;;;;;;;;;;20988283;28;20214;-79
2022/10/14 02:58:30;;;;;;;1.97;1.43;;;;;;;;;;20987958;28;20255;-80
2022/10/14 03:08:32;;;;;;;3.50;1.73;;;;;;;;;;21016203;28;20686;-83
2022/10/14 03:18:36;;;;;;;5.77;1.60;;;;;;;;;;21048174;28;20216;-83
2022/10/14 03:28:45;;;;;;;2.77;1.90;;;;;;;;;;21052789;28;20208;-83
2022/10/14 03:38:58;;;;;;;3.77;1.50;;;;;;;;;;20932741;28;20581;-82
2022/10/14 03:49:15;;;;;;;3.37;2.00;;;;;;;;;;20940767;28;20225;-82
2022/10/14 03:59:17;;;;;;;5.40;1.80;;;;;;;;;;20937845;28;20229;-82
2022/10/14 04:09:24;;;;;;;1.93;1.37;;;;;;;;;;20947324;28;20278;-82
2022/10/14 04:19:26;;;;;;;2.07;1.40;;;;;;;;;;21034677;28;20315;-82
2022/10/14 04:29:28;;;;;;;3.20;1.40;;;;;;;;;;20947767;28;20213;-81
2022/10/14 04:39:37;;;;;;;5.37;2.20;;;;;;;;;;20962220;28;20217;-81
2022/10/14 04:49:40;;;;;;;4.67;2.00;;;;;;;;;;20944217;28;20212;-83
2022/10/14 04:59:48;;;;;;;5.53;2.30;;;;;;;;;;20943776;28;20225;-85
2022/10/14 05:10:29;;;;;;;4.00;2.23;;;;;;;;;;20961104;28;20266;-83
2022/10/14 05:20:32;;;;;;;3.77;2.80;;;;;;;;;;20942968;28;20274;-81
2022/10/14 05:30:35;;;;;;;4.57;3.00;;;;;;;;;;20936404;28;20221;-82
2022/10/14 05:40:40;;;;;;;4.20;2.40;;;;;;;;;;20938740;28;20722;-82
2022/10/14 05:50:42;;;;;;;3.13;2.27;;;;;;;;;;20973931;28;20221;-81
2022/10/14 06:00:48;;;;;;;2.83;2.33;;;;;;;;;;20966677;28;20233;-80
2022/10/14 06:10:54;;;;;;;4.63;2.77;;;13.70;99.90;;;;;;20928881;28;20258;-81
2022/10/14 06:20:56;;;;;;;3.07;2.17;;;;;;;;;;20930631;28;20228;-81
2022/10/14 06:30:58;;;;;;;6.57;2.93;;;;;;;;;;20915786;28;20597;-82
2022/10/14 06:41:00;;;;;;;3.97;2.53;;;;;;;;;;20889700;28;20225;-80
2022/10/14 06:51:02;;;;;;;4.60;2.27;;;;;;;;;;20953416;28;20217;-81
2022/10/14 07:01:05;;;;;;;6.87;3.53;;;13.70;99.90;;;;;;20957593;28;20221;-81
2022/10/14 07:11:07;;;;;;;3.10;2.37;;;;;;;;;;20964943;28;20743;-82
2022/10/14 07:21:09;;;;;;;4.00;2.30;;;;;;;;;;20952639;28;20783;-82
2022/10/14 07:31:12;;;;;;;3.70;2.10;;;;;;;;;;20990373;28;20202;-82
2022/10/14 07:41:18;;;;;;;5.20;2.47;;;;;;;;;;20971613;28;20287;-81
2022/10/14 07:51:20;;;;;;;4.13;2.13;;;;;;;;;;20989527;28;20248;-81
2022/10/14 08:01:23;;;;;;;2.97;1.97;;;;;;;;;;20979200;28;20259;-83
2022/10/14 08:11:26;;;;;;;2.27;1.53;;;;;;;;;;20947776;28;20221;-82
2022/10/14 08:21:29;;;;;;;4.40;1.80;;;;;;;;;;20978173;28;20787;-82
2022/10/14 08:31:31;;;;;;;3.07;1.40;;;14.50;99.90;;;;;;20962412;28;20205;-81
2022/10/14 08:41:52;;;;;;;2.77;1.70;;;;;;;;;;21000068;28;20279;-80
2022/10/14 08:52:12;;;;;;;2.43;1.27;;;14.40;99.90;;;;;;20999032;28;20544;-82
2022/10/14 09:02:27;;;;;;;4.27;1.80;;;;;;;;;;20976119;28;20274;-82
2022/10/14 09:12:31;;;;;;;3.57;1.60;;;14.60;99.90;;;;;;20974770;28;20262;-82
2022/10/14 09:22:33;;;;;;;3.50;1.60;;;;;;;;;;20974660;28;20240;-82
2022/10/14 09:32:47;;;;;;;2.47;1.60;;;;;;;;;;20902880;28;20218;-81
2022/10/14 09:42:56;;;;;;;3.33;1.67;;;;;;;;;;20971973;28;20232;-82
2022/10/14 09:53:00;;;;;;;2.40;1.50;;;;;;;;;;21016059;28;20213;-83
2022/10/14 10:03:02;;;;;;;2.33;1.30;;;;;;;;;;20955550;28;20420;-82
2022/10/14 10:13:04;;;;;;;3.17;1.90;;;;;;;;;;20970267;28;20210;-83
2022/10/14 10:23:25;;;;;;;2.00;1.20;;;15.10;99.90;;;;;;20997131;28;20237;-82
2022/10/14 10:33:35;;;;;;;2.73;1.33;;;;;;;;;;20974946;28;20321;-82
2022/10/14 10:43:44;;;;;;;1.77;1.33;;;;;;;;;;20994146;28;20623;-82
2022/10/14 10:54:04;;;;;;;3.07;1.30;;;;;;;;;;20988145;28;20205;-82
2022/10/14 11:04:32;;;;;;;2.07;1.23;;;;;;;;;;20985949;28;20294;-83
2022/10/14 11:14:36;;;;;;;3.33;1.67;;;;;;;;;;20950302;28;20213;-82
2022/10/14 11:24:53;;;;;;;2.13;1.30;;;;;;;;;;20979781;28;20564;-83
2022/10/14 11:35:00;;;;;;;1.93;1.10;;;;;;;;;;20969459;28;20241;-82
2022/10/14 11:45:17;;;;;;;1.27;0.90;;;;;;;;;;20952929;28;20253;-80
2022/10/14 11:55:22;;;;;;;1.83;0.90;;;15.40;99.90;;;;;;20901169;28;20262;-82
2022/10/14 12:05:36;;;;;;;2.00;1.20;;;15.60;99.90;;;;;;20981099;28;20255;-82
2022/10/14 12:15:42;;;;;;;3.00;1.17;;;15.60;99.90;;;;;;20947562;28;20213;-82
2022/10/14 12:26:00;;;;;;;4.50;1.37;;;;;;;;;;20991002;28;20274;-82
2022/10/14 12:36:38;;;;;;;;;;;;;;;;;;;;;
2022/10/14 12:47:50;;;;;;;1.00;0.70;;;;;;;;;;20995553;28;20243;-84
2022/10/14 13:09:06;;;;;;;1.67;1.07;;;;;;;;;;20991884;28;20255;-83
2022/10/14 13:19:31;;;;;;;1.43;1.03;;;;;;;;;;20952793;28;20217;-83
2022/10/14 13:29:56;;;;;;;2.63;1.30;;;;;;;;;;20937350;28;20274;-81
2022/10/14 13:40:21;;;;;;;2.10;1.20;;;;;;;;;;20952642;28;20266;-83
2022/10/14 13:50:30;;;;;;;2.33;1.30;;;;;;;;;;20937673;28;20426;-83
2022/10/14 14:00:34;;;;;;;1.87;1.13;;;;;;;;;;20983355;28;20217;-84
2022/10/14 14:10:36;;;;;;;2.97;1.40;;;;;;;;;;20957587;28;20286;-81
2022/10/14 14:20:39;;;;;;;4.27;1.27;;;;;;;;;;20971765;28;20220;-81
2022/10/14 14:30:41;;;;;;;3.00;1.40;;;15.90;99.90;;;;;;20990155;28;20736;-82
2022/10/14 14:40:43;;;;;;;3.90;1.77;;;;;;;;;;20953012;28;20229;-81
2022/10/14 14:50:44;;;;;;;3.93;1.33;;;;;;;;;;20984893;28;20221;-81
2022/10/14 15:00:46;;;;;;;1.73;1.27;;;;;;;;;;20986554;28;20255;-83
2022/10/14 15:10:49;;;;;;;1.13;0.80;;;15.60;99.90;;;;;;21009707;28;20253;-84
2022/10/14 15:21:06;;;;;;;2.10;0.70;;;;;;;;;;21025742;28;20212;-82
2022/10/14 15:31:21;;;;;;;1.53;0.70;;;;;;;;;;20985014;28;20844;-81
2022/10/14 15:41:24;;;;;;;1.17;0.57;;;;;;;;;;20965928;28;20229;-83
2022/10/14 15:51:29;;;;;;;1.90;0.90;;;;;;;;;;20983700;28;20756;-81
2022/10/14 16:01:33;;;;;;;1.07;0.60;;;;;;;;;;20982816;28;20233;-81
2022/10/14 16:11:34;;;;;;;1.30;0.90;;;;;;;;;;20998565;28;20233;-82
2022/10/14 16:21:37;;;;;;;1.87;1.17;;;;;;;;;;20980196;28;20237;-81
2022/10/14 16:31:40;;;;;;;2.07;0.73;;;;;;;;;;20995958;28;20213;-83
2022/10/14 16:41:41;;;;;;;2.07;1.20;;;15.70;99.90;;;;;;20993331;28;20221;-81
2022/10/14 16:51:44;;;;;;;2.77;1.50;;;;;;;;;;20916017;28;20248;-82
2022/10/14 17:01:47;;;;;;;1.73;1.30;;;15.60;99.90;;;;;;20970512;28;20278;-83
2022/10/14 17:11:53;;;;;;;3.03;1.33;;;;;;;;;;20960633;28;20213;-81
2022/10/14 17:22:00;;;;;;;2.17;1.10;;;;;;;;;;20973191;28;20283;-80
2022/10/14 17:32:03;;;;;;;2.97;1.00;;;;;;;;;;20958926;28;20201;-81
2022/10/14 17:42:04;;;;;;;3.13;0.90;;;;;;;;;;20988361;28;20686;-82
2022/10/14 17:52:06;;;;;;;1.60;1.00;;;;;;;;;;20955049;28;20270;-82
2022/10/14 18:02:14;;;;;;;1.47;0.60;;;;;;;;;;20955234;28;20298;-81
2022/10/14 18:12:16;;;;;;;3.57;0.60;;;;;;;;;;20987783;28;20236;-81
2022/10/14 18:22:18;;;;;;;0.90;0.50;;;;;;;;;;20970286;28;20911;-82
2022/10/14 18:32:32;;;;;;;3.70;0.70;;;;;;;;;;20955059;28;20217;-82
2022/10/14 18:42:34;;;;;;;0.47;0.33;;;;;;;;;;20881137;28;20249;-82
2022/10/14 18:52:35;;;;;;;0.60;0.43;;;;;;;;;;20934907;28;20214;-82
2022/10/14 19:02:37;;;;;;;0.40;0.37;;;;;;;;;;20884880;28;20233;-82
2022/10/14 19:12:42;;;;;;;1.73;0.73;;;;;;;;;;20903153;28;20213;-81
2022/10/14 19:22:59;;;;;;;0.30;0.30;;;;;;;;;;20949291;28;20282;-84
2022/10/14 19:33:22;;;;;;;0.30;0.30;;;;;;;;;;20963665;28;20255;-81
2022/10/14 19:43:24;;;;;;;0.47;0.40;;;;;;;;;;20933090;28;20229;-84
2022/10/14 19:53:27;;;;;;;1.93;0.50;;;;;;;;;;20979011;28;20193;-84
2022/10/14 20:03:29;;;;;;;0.77;0.43;;;;;;;;;;20996120;28;20243;-83
2022/10/14 20:13:30;;;;;;;1.00;0.63;;;;;;;;;;20962508;28;20205;-85
2022/10/14 20:23:33;;;;;;;1.07;0.50;;;;;;;;;;20964140;28;20290;-84
2022/10/14 20:33:35;;;;;;;0.27;0.27;;;;;;;;;;20970169;28;20680;-85
2022/10/14 20:43:38;;;;;;;0.80;0.50;;;15.10;99.90;;;;;;20927770;28;20229;-82
2022/10/14 20:53:40;;;;;;;0.63;0.33;;;;;;;;;;20892886;28;20260;-82
2022/10/14 21:03:44;;;;;;;0.70;0.50;;;15.20;99.90;;;;;;20927584;28;20283;-82
2022/10/14 21:13:51;;;;;;;1.00;0.60;;;15.20;99.90;;;;;;20974228;28;20217;-81
2022/10/14 21:23:54;;;;;;;0.33;0.33;;;15.10;99.90;;;;;;20954954;28;20220;-81
2022/10/14 21:33:57;;;;;;;0.30;0.30;;;15.10;99.90;;;;;;20974868;28;20581;-81
2022/10/14 21:43:59;;;;;;;0.30;0.30;;;;;;;;;;20992003;28;20225;-81
2022/10/14 21:54:01;;;;;;;0.30;0.30;;;;;;;;;;20981979;28;20229;-82
2022/10/14 22:04:04;;;;;;;0.30;0.30;;;15.20;99.90;;;;;;20994683;28;20738;-81
2022/10/14 22:14:08;;;;;;;0.80;0.30;;;;;;;;;;20974760;28;20217;-83
2022/10/14 22:24:09;;;;;;;0.30;0.30;;;;;;;;;;21059411;28;20220;-82
2022/10/14 22:34:13;;;;;;;0.57;0.30;;;15.10;99.90;;;;;;21090472;28;20213;-82
2022/10/14 22:44:15;;;;;;;0.10;0.10;;;;;;;;;;21071735;28;20232;-84
2022/10/14 22:54:17;;;;;;;0.30;0.23;;;;;;;;;;21050000;28;20278;-86
2022/10/14 23:04:19;;;;;;;0.77;0.20;;;;;;;;;;21053431;28;20281;-83
2022/10/14 23:14:21;;;;;;;0.40;0.27;;;;;;;;;;21057800;28;20269;-80
2022/10/14 23:24:23;;;;;;;0.20;0.20;;;;;;;;;;21084226;28;20711;-79
2022/10/14 23:34:25;;;;;;;0.13;0.13;;;;;;;;;;21033903;28;20258;-80
2022/10/14 23:44:26;;;;;;;0.20;0.20;;;;;;;;;;20986375;28;20267;-83
2022/10/14 23:54:28;;;;;;;0.20;0.20;;;;;;;;;;20949539;28;20582;-82
